Terminal Aerodrome Forecast
Issued by NWS

Current Version | Previous Version | Text Only | Print | Product List | Glossary On
Versions: 1 2 3 4 5 6 7 8 9 10 11 12 13 14 15 16 17 18
000
FTUS44 KLIX 302339
TAFMSY
TAF
KMSY 302339Z 0100/0124 21007KT P6SM FEW015 FEW040 OVC070
     FM010300 28010KT P6SM BKN070
     FM010900 29009KT P6SM SKC=

USA.gov is the U.S. government's official web portal to all federal, state and local government web resources and services.